Detall de PIREP

Printer-friendly versionPDF version

[2015/04/25 09:29:00]
Flight IATA:CT1060
Pilot Number:012
Company ICAO:CAT
Aircraft Type:DC85/A
PAX:132
Aircraft Registration:PAX
Departing Airport: LFMP
Destination Airport: LEAL
Alternate Airport:LEPA
Online: VATSIM
Route:BGR UN855 SISMO UZ237 OKITI UM603 GERVU
Flight Level:F310
No Slew and time accel
No pause
Crash detect
Detect pilot in Cockpit between each 30 and 45 minutes
09:29 Zero fuel Weight: 165460 Lbs, Fuel Weight: 34464 Lbs
09:29 VATSIM:LFMP 250900Z AUTO 06005KT 010V100 9999 SCT012 BKN019 BKN025 18/15 Q1013
09:29 VATSIM:LEAL 250900Z 05006KT 350V100 8000 NSC 22/13 Q1015 NOSIG
09:29 ALMOGAVERS ROUTE
09:35 Parking Brakes off
09:44 Take-off
09:44 Take off Weight: 198765 Lbs
09:44 Wind: 049º @ 011 Knots Heading: 324º
09:44 POS N42º 44´ 50´´ E002º 52´ 03´´
09:44 Gear Up: 157 Knots
09:44 Flaps:2 at 157 Knots
09:46 Flaps:1 at 210 Knots
09:46 Flaps:0 at 210Knots
09:59 Wind:274º@057 Knots Heading: 187º Ground Speed: 431 Knots Altitude 29445 ft
10:00 TOC
10:00 Fuel Weight: 28525 Lb
10:14 Wind:286º@074 Knots Heading: 217º Ground Speed: 468 Knots Altitude 31049 ft
10:28 TOD
10:28 Fuel Weight: 21531 Lb
10:29 Wind:265º@063 Knots Heading: 250º Ground Speed: 432 Knots Altitude 29609 ft
10:39 Flaps:1 at 227 Knots
10:41 Flaps:2 at 211 Knots
10:43 Flaps:3 at 162 Knots
10:43 Flaps:2 at 157 Knots
10:44 Wind:305º@008 Knots Heading: 275º Ground Speed: 188 Knots Altitude 3759 ft
10:44 Flaps:3 at 188 Knots
10:48 Gear Down: 188 Knots
10:48 Flaps:4 at 161 Knots
10:52 TouchDown:Rate -246 ft/min Speed: 146 Knots
10:52 VATSIM:LEAL 251030Z 09008KT 060V130 6000 NSC 21/15 Q1015 NOSIG
10:52 Land
10:52 Wind:091º@008 Knots
10:52 Heading: 080º
10:52 Flight Duration: 01:08
10:52 Landing Weight: 184021 Lbs
10:52 POS N38º 16´ 51´´ W000º 33´ 00´´
10:57 Parking brakes on
10:57 Block to Block Duration: 01:22
10:57 Final Fuel: 18026 Lbls
10:57 Spent Fuel: 16437 Lbls
10:57 Flight Length: 407 NM
10:57 TOD Land Length: 105 NM

Exportar CSV

Powered by Drupal - Modified by Danger4k